Weather at Detroit Metropolitan Wayne County Airport

Public forecast

Using degrees Fahrenheit for public forecast. Weather courtesy of forecast.io.

Current aviation weather report (METAR) for Detroit Metropolitan Wayne County Airport

Retrieved 2021/05/06 06:53 UTC (8 minutes ago):

KDTW 060653Z 00000KT 9SM FEW110 SCT180 SCT250 06/03 A3014 RMK AO2 SLP208 T00560033

Aviation forecast (TAF) for Detroit Metropolitan Wayne County Airport

Retrieved 2021/05/06 06:30 UTC (31 minutes ago):

TAF KDTW 060529Z 0606/0712 VRB03KT P6SM BKN250 FM061400 18005KT P6SM OVC080 FM061900 14005KT 6SM -SHRA OVC040 FM062300 04005KT P6SM OVC025